Time;durP1;ratioP1;P1;durP2;ratioP2;P2;SDS_P1;SDS_P2;PMS_P1;PMS_P2;Temp;Humidity;BMP_temperature;BMP_pressure;BME280_temperature;BME280_humidity;BME280_pressure;Samples;Min_cycle;Max_cycle;Signal;HPM_P1;HPM_P2
2021/06/11 00:01:51;;;;;;;8.57;7.88;;;;;;;17.73;74.09;100899.53;4888767;28;98304;-74
2021/06/11 00:04:17;;;;;;;8.38;7.43;;;;;;;17.94;72.92;100902.66;4902674;28;98206;-74
2021/06/11 00:06:43;;;;;;;8.77;7.88;;;;;;;17.80;73.46;100897.25;4936346;28;107961;-74
2021/06/11 00:09:13;;;;;;;9.20;8.13;;;;;;;17.93;73.05;100903.00;4938486;28;116656;-76
2021/06/11 00:11:42;;;;;;;9.27;8.43;;;;;;;17.69;73.42;100890.38;4935410;28;98658;-77
2021/06/11 00:14:08;;;;;;;8.98;7.80;;;;;;;17.98;72.89;100897.41;4922652;28;100636;-75
2021/06/11 00:16:34;;;;;;;9.00;7.80;;;;;;;17.99;72.54;100897.09;4921149;28;119873;-74
2021/06/11 00:19:00;;;;;;;9.27;8.32;;;;;;;18.00;72.31;100898.72;4887480;28;98147;-74
2021/06/11 00:21:26;;;;;;;9.00;8.10;;;;;;;18.01;72.11;100896.81;4919646;28;127184;-75
2021/06/11 00:23:53;;;;;;;9.15;8.32;;;;;;;17.97;72.52;100898.53;4918850;28;128462;-76
2021/06/11 00:26:20;;;;;;;9.50;8.68;;;;;;;17.70;72.96;100891.97;4902569;28;98087;-76
2021/06/11 00:28:46;;;;;;;9.52;8.48;;;;;;;17.64;73.50;100895.91;4886521;28;109403;-75
2021/06/11 00:31:12;;;;;;;11.20;8.48;;;;;;;17.91;72.69;100893.16;4930570;28;124023;-76
2021/06/11 00:33:38;;;;;;;9.77;8.35;;;;;;;18.06;72.09;100899.41;4924791;28;126337;-75
2021/06/11 00:36:05;;;;;;;8.90;7.57;;;;;;;18.03;72.13;100889.91;4940002;28;126450;-75
2021/06/11 00:38:32;;;;;;;8.88;8.07;;;;;;;17.90;72.66;100890.75;4931445;28;98217;-77
2021/06/11 00:40:58;;;;;;;9.73;8.00;;;;;;;17.93;72.54;100890.16;4902956;28;99863;-75
2021/06/11 00:43:24;;;;;;;9.00;8.20;;;;;;;17.79;72.86;100889.34;4917427;28;126419;-77
2021/06/11 00:45:50;;;;;;;8.73;7.82;;;;;;;17.88;72.37;100884.78;4901825;28;127752;-75
2021/06/11 00:48:17;;;;;;;9.23;8.32;;;;;;;18.05;71.84;100892.34;4921318;28;98012;-77
2021/06/11 00:50:43;;;;;;;9.38;8.52;;;;;;;18.08;71.70;100887.09;4918792;28;98952;-74
2021/06/11 00:53:09;;;;;;;9.05;8.15;;;;;;;18.00;72.32;100903.34;4903249;28;100049;-77
2021/06/11 00:55:36;;;;;;;9.40;8.60;;;;;;;18.01;71.99;100892.16;4927975;28;98110;-75
2021/06/11 00:58:03;;;;;;;9.88;8.30;;;;;;;18.05;71.70;100900.53;4921725;28;97979;-78
2021/06/11 01:00:29;;;;;;;9.23;8.43;;;;;;;18.02;72.13;100895.69;4921043;28;107122;-78
2021/06/11 01:02:55;;;;;;;9.10;8.05;;;;;;;17.98;71.72;100897.41;4933090;28;98301;-74
2021/06/11 01:05:21;;;;;;;9.50;8.55;;;;;;;17.89;72.74;100900.06;4920785;28;122960;-75
2021/06/11 01:07:50;;;;;;;9.70;8.80;;;;;;;17.81;72.83;100895.34;4927867;28;106482;-75
2021/06/11 01:10:16;;;;;;;10.55;9.05;;;;;;;17.86;72.13;100900.66;4925365;28;98492;-74
2021/06/11 01:12:42;;;;;;;9.40;8.52;;;;;;;17.94;72.21;100901.88;4907812;28;127224;-74
2021/06/11 01:15:09;;;;;;;9.77;8.88;;;;;;;17.78;72.49;100898.66;4919870;28;108521;-74
2021/06/11 01:17:35;;;;;;;9.82;8.93;;;;;;;17.77;73.04;100895.13;4890580;28;99009;-77
2021/06/11 01:20:05;;;;;;;9.93;9.02;;;;;;;17.88;72.89;100893.81;4921664;28;127872;-74
2021/06/11 01:23:00;;;;;;;10.55;9.27;;;;;;;17.87;72.54;100899.53;4874293;28;98902;-75
2021/06/11 01:26:23;;;;;;;10.70;9.77;;;;;;;17.80;72.71;100896.41;4922413;28;99264;-77
2021/06/11 01:28:57;;;;;;;10.60;9.55;;;;;;;17.67;72.98;100892.56;4923914;28;97793;-74
2021/06/11 01:31:23;;;;;;;10.60;9.20;;;;;;;17.62;73.08;100889.97;4921621;28;99456;-76
2021/06/11 01:33:57;;;;;;;10.43;9.52;;;;;;;17.56;73.77;100885.72;4904750;28;124004;-77
2021/06/11 01:36:24;;;;;;;10.15;9.25;;;;;;;17.61;73.25;100886.44;4919807;28;116390;-77
2021/06/11 01:38:51;;;;;;;11.25;10.32;;;;;;;17.64;73.01;100880.38;4925059;28;98033;-77
2021/06/11 01:41:18;;;;;;;11.25;10.13;;;;;;;17.52;73.31;100887.44;4907913;28;98419;-74
2021/06/11 01:43:46;;;;;;;11.55;9.82;;;;;;;17.72;72.77;100888.94;4923841;28;99750;-75
2021/06/11 01:46:16;;;;;;;10.32;9.32;;;;;;;17.61;72.94;100880.97;4924459;28;99585;-77
2021/06/11 01:48:42;;;;;;;10.70;9.30;;;;;;;17.56;73.26;100883.78;4941913;28;98099;-75
2021/06/11 01:51:09;;;;;;;10.00;8.95;;;;;;;17.65;72.62;100883.91;4907558;28;109501;-74
2021/06/11 01:53:36;;;;;;;10.65;9.68;;;;;;;17.69;72.89;100874.00;4925307;28;98610;-77
2021/06/11 01:56:03;;;;;;;12.15;10.00;;;;;;;17.48;73.40;100881.78;4912522;28;98535;-74
2021/06/11 01:58:30;;;;;;;10.63;9.73;;;;;;;17.53;73.20;100870.00;4890200;28;98238;-77
2021/06/11 02:00:57;;;;;;;10.23;9.30;;;;;;;17.57;73.17;100879.19;4920967;28;98920;-76
2021/06/11 02:03:23;;;;;;;10.18;9.18;;;;;;;17.40;73.62;100880.56;4922558;28;97842;-74
2021/06/11 02:05:50;;;;;;;10.50;9.43;;;;;;;17.38;73.52;100879.28;4881925;28;127420;-74
2021/06/11 02:08:16;;;;;;;11.07;9.70;;;;;;;17.27;73.39;100878.66;4941556;28;98140;-75
2021/06/11 02:10:43;;;;;;;10.48;9.48;;;;;;;17.51;73.48;100877.66;4922439;28;98229;-76
2021/06/11 02:13:09;;;;;;;10.20;9.25;;;;;;;17.42;73.85;100881.09;4940504;28;100702;-77
2021/06/11 02:15:35;;;;;;;10.43;9.48;;;;;;;17.48;73.71;100883.69;4924442;28;98201;-76
2021/06/11 02:18:01;;;;;;;10.48;9.48;;;;;;;17.39;74.31;100887.13;4924963;28;97884;-77
2021/06/11 02:20:27;;;;;;;11.02;9.80;;;;;;;17.40;73.75;100886.03;4922311;28;126102;-77
2021/06/11 02:22:53;;;;;;;11.02;9.93;;;;;;;17.46;73.63;100883.22;4905007;28;126896;-74
2021/06/11 02:25:24;;;;;;;12.15;10.98;;;;;;;17.17;73.97;100884.28;4904671;28;98493;-77
2021/06/11 02:27:50;;;;;;;10.93;9.93;;;;;;;17.38;73.80;100890.19;4923249;28;97955;-77
2021/06/11 02:30:18;;;;;;;11.85;10.60;;;;;;;17.12;74.42;100887.94;4927432;28;98299;-74
2021/06/11 02:32:45;;;;;;;11.52;10.30;;;;;;;17.16;74.76;100879.97;4940160;28;97966;-74
2021/06/11 02:35:23;;;;;;;11.85;10.75;;;;;;;17.16;74.50;100888.94;4938689;28;98072;-77
2021/06/11 02:37:49;;;;;;;10.88;9.88;;;;;;;17.24;74.28;100887.44;4939181;28;98057;-77
2021/06/11 02:40:16;;;;;;;11.57;10.38;;;;;;;17.03;75.33;100878.03;4922602;28;99794;-77
2021/06/11 02:42:48;;;;;;;12.00;10.25;;;;;;;17.06;75.06;100894.59;4922063;28;121563;-73
2021/06/11 02:45:18;;;;;;;11.30;10.25;;;;;;;16.91;75.13;100889.41;4925050;28;116620;-74
2021/06/11 02:47:59;;;;;;;11.13;9.77;;;;;;;17.02;74.88;100882.69;4940485;28;97980;-79
2021/06/11 02:50:38;;;;;;;11.13;10.02;;;;;;;17.09;74.35;100876.81;4908699;28;116489;-77
2021/06/11 02:53:05;;;;;;;11.25;10.15;;;;;;;17.04;74.48;100882.38;4925536;28;98993;-77
2021/06/11 02:55:32;;;;;;;12.30;11.07;;;;;;;16.63;75.67;100881.16;4904667;28;98048;-74
2021/06/11 02:58:19;;;;;;;11.98;10.77;;;;;;;16.81;75.45;100884.13;4910785;28;97915;-77
2021/06/11 03:00:45;;;;;;;11.18;10.15;;;;;;;16.86;75.13;100881.34;4939988;28;98952;-77
2021/06/11 03:03:23;;;;;;;12.25;11.05;;;;;;;16.95;74.63;100890.44;4907238;28;99265;-74
2021/06/11 03:05:55;;;;;;;10.20;9.30;;;;;;;16.99;74.81;100877.84;4940227;28;98078;-73
2021/06/11 03:08:29;;;;;;;11.80;10.63;;;;;;;16.91;74.90;100892.94;4940772;28;97989;-78
2021/06/11 03:10:59;;;;;;;12.63;9.55;;;;;;;16.98;74.46;100894.44;4923175;28;98328;-77
2021/06/11 03:13:26;;;;;;;11.50;10.40;;;;;;;17.01;74.16;100893.84;4940124;28;99004;-74
2021/06/11 03:15:52;;;;;;;11.40;10.20;;;;;;;17.14;74.25;100898.53;4905641;28;112294;-74
2021/06/11 03:18:41;;;;;;;10.75;9.75;;;;;;;16.81;74.73;100904.00;4939278;28;98028;-77
2021/06/11 03:21:46;;;;;;;11.13;10.05;;;;;;;17.00;74.57;100901.22;4926930;28;98089;-73
2021/06/11 03:24:20;;;;;;;11.98;9.88;;;;;;;16.87;75.09;100897.38;4920558;28;98807;-74
2021/06/11 03:26:59;;;;;;;12.60;11.35;;;;;;;16.82;74.69;100900.19;4904099;28;98140;-74
2021/06/11 03:29:35;;;;;;;11.30;10.30;;;;;;;16.84;74.87;100894.44;4905614;28;98318;-73
2021/06/11 03:32:05;;;;;;;12.65;10.43;;;;;;;17.02;74.33;100896.31;4919585;28;99020;-77
2021/06/11 03:34:34;;;;;;;11.65;10.45;;;;;;;17.01;74.47;100893.84;4904635;28;111713;-77
2021/06/11 03:37:03;;;;;;;13.18;11.48;;;;;;;16.90;74.80;100891.34;4923084;28;98196;-78
2021/06/11 03:39:35;;;;;;;13.02;11.35;;;;;;;16.78;74.90;100893.72;4939374;28;98030;-77
2021/06/11 03:42:03;;;;;;;12.75;11.50;;;;;;;16.88;74.97;100887.28;4939342;28;98953;-77
2021/06/11 03:44:29;;;;;;;11.93;10.40;;;;;;;16.75;75.30;100896.22;4900878;28;109742;-76
2021/06/11 03:46:55;;;;;;;11.80;10.65;;;;;;;16.98;74.60;100892.56;4938238;28;126711;-77
2021/06/11 03:49:22;;;;;;;12.45;11.10;;;;;;;16.85;74.78;100891.41;4909205;28;112423;-73
2021/06/11 03:51:48;;;;;;;12.82;11.52;;;;;;;16.94;74.29;100891.53;4902830;28;127542;-77
2021/06/11 03:54:15;;;;;;;12.70;10.55;;;;;;;16.88;74.56;100893.53;4903098;28;98616;-74
2021/06/11 03:56:41;;;;;;;12.90;10.95;;;;;;;16.53;76.18;100902.25;4936152;28;100730;-74
2021/06/11 03:59:10;;;;;;;12.25;10.98;;;;;;;16.54;76.16;100901.16;4906710;28;97901;-78
2021/06/11 04:01:42;;;;;;;12.13;11.00;;;;;;;16.53;75.65;100905.00;4921981;28;98940;-73
2021/06/11 04:04:08;;;;;;;12.25;10.95;;;;;;;16.68;75.00;100905.53;4888073;28;98906;-77
2021/06/11 04:06:40;;;;;;;12.15;10.93;;;;;;;16.78;74.92;100915.50;4935216;28;127533;-77
2021/06/11 04:09:09;;;;;;;12.20;11.10;;;;;;;17.04;74.29;100907.69;4923258;28;105018;-73
2021/06/11 04:11:48;;;;;;;11.75;10.60;;;;;;;16.98;74.62;100910.78;4922581;28;98938;-77
2021/06/11 04:14:26;;;;;;;11.82;10.65;;;;;;;17.04;74.73;100909.59;4905779;28;98833;-73
2021/06/11 04:16:56;;;;;;;11.68;10.40;;;;;;;17.06;74.24;100916.38;4911467;28;98174;-73
2021/06/11 04:19:47;;;;;;;12.82;11.18;;;;;;;16.92;74.29;100916.34;4923701;28;97981;-76
2021/06/11 04:22:14;;;;;;;11.80;10.60;;;;;;;16.89;74.01;100911.47;4890755;28;108972;-73
2021/06/11 04:24:46;;;;;;;12.80;11.50;;;;;;;17.04;74.18;100910.41;4921408;28;112662;-73
2021/06/11 04:27:12;;;;;;;13.27;11.55;;;;;;;17.00;73.89;100909.41;4904668;28;125434;-72
2021/06/11 04:29:38;;;;;;;12.18;10.98;;;;;;;17.35;73.38;100910.66;4902209;28;98112;-73
2021/06/11 04:32:05;;;;;;;12.68;10.85;;;;;;;17.41;73.04;100911.38;4900911;28;115560;-77
2021/06/11 04:34:31;;;;;;;11.68;10.45;;;;;;;17.51;73.06;100918.53;4919246;28;116697;-77
2021/06/11 04:36:57;;;;;;;11.43;10.05;;;;;;;17.51;73.00;100913.09;4904272;28;127538;-77
2021/06/11 04:39:25;;;;;;;12.98;10.63;;;;;;;17.45;72.56;100915.09;4937633;28;101420;-77
2021/06/11 04:41:51;;;;;;;12.02;10.63;;;;;;;17.77;72.03;100914.22;4917937;28;97958;-73
2021/06/11 04:44:17;;;;;;;11.32;10.13;;;;;;;17.81;72.36;100917.13;4920913;28;98576;-77
2021/06/11 04:46:43;;;;;;;15.23;11.27;;;;;;;17.63;72.59;100916.91;4937390;28;127494;-73
2021/06/11 04:49:09;;;;;;;10.98;9.98;;;;;;;18.18;71.00;100909.78;4919598;28;98248;-78
2021/06/11 04:51:36;;;;;;;12.35;10.10;;;;;;;18.37;70.04;100916.69;4920715;28;98663;-73
2021/06/11 04:54:02;;;;;;;11.38;10.25;;;;;;;18.54;69.26;100909.75;4937968;28;109255;-77
2021/06/11 04:56:28;;;;;;;10.73;9.73;;;;;;;18.60;69.63;100911.25;4940222;28;115611;-78
2021/06/11 04:58:55;;;;;;;10.68;9.55;;;;;;;18.70;69.13;100913.75;4922294;28;104369;-73
2021/06/11 05:01:21;;;;;;;13.90;10.40;;;;;;;18.91;68.48;100918.72;4916004;28;100764;-73
2021/06/11 05:03:47;;;;;;;12.30;9.85;;;;;;;18.80;69.23;100915.44;4938340;28;100073;-73
2021/06/11 05:06:14;;;;;;;10.93;9.90;;;;;;;18.85;68.69;100915.28;4921484;28;123485;-77
2021/06/11 05:08:41;;;;;;;13.95;11.27;;;;;;;18.74;68.58;100912.00;4941109;28;98034;-73
2021/06/11 05:11:07;;;;;;;10.60;9.57;;;;;;;18.59;69.37;100905.00;4905552;28;100486;-77
2021/06/11 05:13:33;;;;;;;11.20;9.93;;;;;;;18.67;69.38;100913.53;4940267;28;117304;-73
2021/06/11 05:15:59;;;;;;;10.57;9.50;;;;;;;19.15;68.30;100916.44;4885231;28;128954;-73
2021/06/11 05:18:29;;;;;;;11.20;8.85;;;;;;;19.30;67.11;100913.28;4922203;28;98181;-73
2021/06/11 05:20:55;;;;;;;11.20;10.00;;;;;;;19.03;68.10;100908.03;4916217;28;99008;-73
2021/06/11 05:23:21;;;;;;;10.57;9.57;;;;;;;19.61;66.55;100899.59;4898935;28;98154;-73
2021/06/11 05:25:48;;;;;;;10.88;9.60;;;;;;;19.23;67.69;100912.13;4938454;28;98396;-77
2021/06/11 05:28:15;;;;;;;11.35;9.90;;;;;;;19.59;66.38;100907.28;4938247;28;102146;-78
2021/06/11 05:30:41;;;;;;;10.35;9.30;;;;;;;19.73;66.62;100909.09;4912630;28;100893;-74
2021/06/11 05:33:07;;;;;;;10.15;9.15;;;;;;;19.55;66.42;100908.25;4895449;28;100866;-75
2021/06/11 05:35:33;;;;;;;10.98;9.77;;;;;;;19.18;67.72;100917.72;4918086;28;126805;-74
2021/06/11 05:38:04;;;;;;;10.75;9.68;;;;;;;19.60;66.23;100910.81;4921480;28;114382;-73
2021/06/11 05:40:33;;;;;;;12.38;9.50;;;;;;;19.90;66.00;100911.91;4938723;28;98601;-73
2021/06/11 05:42:59;;;;;;;10.40;9.30;;;;;;;20.23;65.22;100904.03;4938234;28;99054;-78
2021/06/11 05:45:27;;;;;;;11.25;9.20;;;;;;;20.24;65.41;100913.88;4939410;28;98837;-77
2021/06/11 05:47:53;;;;;;;10.75;9.75;;;;;;;19.79;66.14;100913.31;4938872;28;97973;-78
2021/06/11 05:50:19;;;;;;;11.45;9.20;;;;;;;20.16;65.19;100906.47;4937956;28;125848;-73
2021/06/11 05:52:45;;;;;;;10.93;9.80;;;;;;;20.00;64.78;100919.81;4917495;28;98768;-78
2021/06/11 05:55:13;;;;;;;10.30;9.30;;;;;;;20.16;64.96;100917.41;4937635;28;98259;-73
2021/06/11 05:57:40;;;;;;;10.40;9.40;;;;;;;20.55;63.24;100923.84;4940043;28;97866;-77
2021/06/11 06:00:08;;;;;;;12.15;9.50;;;;;;;20.73;62.95;100917.25;4904078;28;98045;-74
2021/06/11 06:02:34;;;;;;;10.48;9.43;;;;;;;21.04;61.76;100916.22;4918727;28;98402;-74
2021/06/11 06:05:00;;;;;;;10.63;9.52;;;;;;;21.12;61.09;100909.91;4931990;28;98380;-77
2021/06/11 06:07:26;;;;;;;10.02;9.00;;;;;;;21.13;60.70;100918.91;4940027;28;97993;-74
2021/06/11 06:09:52;;;;;;;10.27;9.27;;;;;;;21.42;60.78;100916.25;4932238;28;105671;-78
2021/06/11 06:12:18;;;;;;;9.82;8.80;;;;;;;21.41;60.48;100922.06;4939785;28;100483;-73
2021/06/11 06:14:44;;;;;;;9.10;8.13;;;;;;;21.36;60.42;100919.50;4920913;28;98253;-77
2021/06/11 06:17:10;;;;;;;10.75;8.02;;;;;;;22.63;58.31;100922.06;4940433;28;97981;-78
2021/06/11 06:19:37;;;;;;;10.35;8.50;;;;;;;21.68;59.62;100916.13;4887433;28;107859;-78
2021/06/11 06:22:03;;;;;;;10.00;8.27;;;;;;;21.74;60.57;100927.72;4929479;28;98537;-74
2021/06/11 06:24:29;;;;;;;9.55;8.45;;;;;;;21.85;59.88;100928.94;4929381;28;127569;-74
2021/06/11 06:26:56;;;;;;;8.75;7.95;;;;;;;22.41;58.24;100924.03;4920640;28;117285;-74
2021/06/11 06:29:22;;;;;;;10.88;8.27;;;;;;;21.97;60.06;100936.47;4937133;28;110629;-78
2021/06/11 06:31:48;;;;;;;12.15;8.75;;;;;;;22.24;59.31;100937.88;4934437;28;98876;-74
2021/06/11 06:34:14;;;;;;;9.43;8.02;;;;;;;22.28;58.22;100930.59;4936737;28;126298;-74
2021/06/11 06:36:41;;;;;;;9.73;8.35;;;;;;;21.82;59.35;100924.13;4920607;28;98696;-74
2021/06/11 06:39:07;;;;;;;9.30;8.23;;;;;;;23.28;55.33;100914.94;4938856;28;98344;-74
2021/06/11 06:41:35;;;;;;;8.27;7.47;;;;;;;23.36;54.52;100914.03;4937658;28;98264;-73
2021/06/11 06:44:01;;;;;;;11.63;7.10;;;;;;;24.41;52.06;100908.63;4900573;28;98362;-78
2021/06/11 06:46:27;;;;;;;8.45;7.45;;;;;;;23.57;54.01;100915.84;4940091;28;97864;-79
2021/06/11 06:48:54;;;;;;;8.75;7.45;;;;;;;24.53;51.56;100901.47;4920649;28;109731;-79
2021/06/11 06:51:23;;;;;;;7.80;7.10;;;;;;;24.23;53.08;100901.78;4901043;28;98871;-79
2021/06/11 06:53:49;;;;;;;7.10;6.32;;;;;;;25.48;49.96;100891.34;4935745;28;98381;-79
2021/06/11 06:56:15;;;;;;;6.90;6.20;;;;;;;26.03;48.90;100894.19;4920950;28;117464;-73
2021/06/11 06:58:42;;;;;;;7.03;6.30;;;;;;;25.27;49.47;100888.06;4904047;28;100365;-73
2021/06/11 07:01:08;;;;;;;7.65;6.95;;;;;;;25.26;48.49;100892.78;4936120;28;128251;-73
2021/06/11 07:03:35;;;;;;;7.03;6.32;;;;;;;25.76;47.19;100891.19;4920621;28;98835;-73
2021/06/11 07:06:01;;;;;;;7.28;5.93;;;;;;;26.89;44.92;100894.72;4920265;28;98354;-79
2021/06/11 07:08:30;;;;;;;7.18;6.05;;;;;;;28.32;41.26;100896.09;4884031;28;99282;-79
2021/06/11 07:10:59;;;;;;;8.35;5.82;;;;;;;28.44;40.65;100893.09;4938067;28;99133;-79
2021/06/11 07:13:27;;;;;;;6.53;5.20;;;;;;;28.73;40.14;100901.72;4938494;28;98110;-79
2021/06/11 07:15:53;;;;;;;7.38;5.57;;;;;;;28.11;42.05;100902.19;4938801;28;97981;-79
2021/06/11 07:18:19;;;;;;;7.35;6.30;;;;;;;27.36;43.21;100893.56;4935347;28;128407;-72
2021/06/11 07:20:46;;;;;;;8.55;6.57;;;;;;;26.73;44.90;100885.75;4916779;28;127877;-71
2021/06/11 07:23:12;;;;;;;8.88;6.20;;;;;;;26.52;44.09;100890.84;4936221;28;97949;-71
2021/06/11 07:25:38;;;;;;;6.90;6.30;;;;;;;25.37;46.65;100882.00;4937468;28;119250;-79
2021/06/11 07:28:04;;;;;;;8.77;6.28;;;;;;;25.33;47.77;100881.91;4935973;28;127917;-79
2021/06/11 07:30:30;;;;;;;7.10;6.40;;;;;;;25.24;48.35;100886.03;4936304;28;129051;-79
2021/06/11 07:32:56;;;;;;;6.40;5.80;;;;;;;25.27;48.26;100885.28;4902658;28;108658;-72
2021/06/11 07:35:22;;;;;;;7.22;6.00;;;;;;;25.69;48.19;100878.03;4914196;28;98171;-72
2021/06/11 07:37:48;;;;;;;6.35;5.82;;;;;;;25.01;49.38;100877.53;4931152;28;98434;-72
2021/06/11 07:40:15;;;;;;;7.40;5.85;;;;;;;25.47;48.02;100881.47;4927785;28;128654;-79
2021/06/11 07:42:41;;;;;;;8.32;6.07;;;;;;;25.48;48.64;100885.81;4929391;28;98530;-72
2021/06/11 07:45:08;;;;;;;6.82;6.22;;;;;;;26.35;46.37;100884.59;4928348;28;98254;-79
2021/06/11 07:47:34;;;;;;;7.35;6.38;;;;;;;25.90;46.50;100888.00;4913753;28;98684;-72
2021/06/11 07:50:00;;;;;;;7.07;6.13;;;;;;;25.49;48.21;100892.94;4925022;28;98183;-78
2021/06/11 07:52:27;;;;;;;6.30;5.47;;;;;;;27.13;44.92;100884.50;4931365;28;106291;-72
2021/06/11 07:54:53;;;;;;;6.32;5.50;;;;;;;27.64;43.22;100887.66;4926851;28;98031;-72
2021/06/11 07:57:19;;;;;;;7.45;5.55;;;;;;;27.36;43.05;100885.25;4893677;28;120597;-73
2021/06/11 07:59:45;;;;;;;6.05;5.00;;;;;;;29.11;39.68;100889.44;4926567;28;127716;-80
2021/06/11 08:02:12;;;;;;;5.60;4.65;;;;;;;30.37;36.18;100894.59;4926985;28;125758;-72
2021/06/11 08:04:38;;;;;;;7.97;5.97;;;;;;;30.91;35.42;100894.75;4933127;28;98011;-72
2021/06/11 08:07:05;;;;;;;5.60;5.07;;;;;;;31.87;33.50;100894.69;4935689;28;99250;-72
2021/06/11 08:09:33;;;;;;;5.13;4.60;;;;;;;31.60;34.64;100891.56;4931246;28;129168;-72
2021/06/11 08:11:59;;;;;;;4.88;4.35;;;;;;;31.16;33.49;100884.41;4938051;28;97937;-72
2021/06/11 08:14:25;;;;;;;4.85;4.25;;;;;;;32.31;32.01;100881.41;4937503;28;103432;-80
2021/06/11 08:16:51;;;;;;;4.90;4.40;;;;;;;31.58;32.96;100877.22;4937172;28;99219;-76
2021/06/11 08:19:17;;;;;;;5.15;4.65;;;;;;;31.22;33.73;100877.25;4938131;28;99224;-73
2021/06/11 08:21:43;;;;;;;4.25;3.90;;;;;;;33.41;28.51;100865.88;4936556;28;127507;-79
2021/06/11 08:24:09;;;;;;;4.47;4.07;;;;;;;32.48;30.57;100874.94;4932285;28;98081;-72
2021/06/11 08:26:35;;;;;;;5.40;4.28;;;;;;;33.37;29.68;100857.53;4932209;28;127929;-71
2021/06/11 08:29:01;;;;;;;3.88;3.42;;;;;;;33.74;29.12;100853.16;4937049;28;122932;-79
2021/06/11 08:31:27;;;;;;;4.80;4.30;;;;;;;33.21;30.21;100854.50;4935502;28;113485;-79
2021/06/11 08:33:53;;;;;;;5.03;3.40;;;;;;;32.77;29.93;100853.22;4935410;28;118007;-78
2021/06/11 08:36:19;;;;;;;3.58;3.08;;;;;;;33.82;29.19;100860.25;4914784;28;127948;-71
2021/06/11 08:38:45;;;;;;;4.07;3.67;;;;;;;35.41;26.58;100857.50;4930964;28;98807;-71
2021/06/11 08:41:13;;;;;;;4.00;3.70;;;;;;;36.41;24.51;100863.13;4910975;28;127703;-79
2021/06/11 08:43:39;;;;;;;5.60;3.22;;;;;;;36.43;23.93;100863.44;4918855;28;98061;-79
2021/06/11 08:46:05;;;;;;;6.40;3.50;;;;;;;36.75;23.53;100859.94;4898681;28;112810;-79
2021/06/11 08:48:31;;;;;;;4.43;4.03;;;;;;;36.87;23.66;100848.00;4926794;28;127983;-79
2021/06/11 08:50:58;;;;;;;4.10;2.90;;;;;;;37.30;22.31;100849.72;4936987;28;104529;-79
2021/06/11 08:53:25;;;;;;;3.10;2.60;;;;;;;37.61;22.19;100844.47;4934515;28;98161;-79
2021/06/11 08:55:51;;;;;;;2.40;2.22;;;;;;;36.34;23.90;100836.78;4919321;28;98282;-71
2021/06/11 08:58:17;;;;;;;2.75;2.53;;;;;;;35.76;23.65;100842.03;4937301;28;111063;-79
2021/06/11 09:00:44;;;;;;;3.03;2.70;;;;;;;36.36;23.80;100839.97;4936484;28;98428;-79
2021/06/11 09:03:24;;;;;;;3.97;3.00;;;;;;;35.93;24.33;100828.09;4936195;28;98188;-71
2021/06/11 09:05:59;;;;;;;4.37;3.47;;;;;;;35.23;24.59;100821.44;4935664;28;98731;-79
2021/06/11 09:08:25;;;;;;;4.13;3.33;;;;;;;36.07;24.71;100822.97;4934868;28;100204;-71
2021/06/11 09:10:55;;;;;;;4.45;3.30;;;;;;;37.44;22.93;100823.28;4910296;28;115694;-79
2021/06/11 09:13:29;;;;;;;3.90;3.42;;;;;;;35.67;25.29;100816.59;4911915;28;98110;-79
2021/06/11 09:16:19;;;;;;;4.43;3.28;;;;;;;34.15;26.95;100818.69;4902923;28;98579;-80
2021/06/11 09:19:04;;;;;;;4.18;3.30;;;;;;;34.33;26.70;100807.28;4919784;28;99028;-79
2021/06/11 09:21:44;;;;;;;4.53;3.30;;;;;;;33.70;29.33;100805.69;4936239;28;103945;-79
2021/06/11 09:24:25;;;;;;;8.10;3.60;;;;;;;34.16;28.62;100807.13;4935737;28;97808;-79
2021/06/11 09:27:02;;;;;;;5.35;3.75;;;;;;;32.64;30.35;100807.50;4935018;28;99004;-71
2021/06/11 09:29:45;;;;;;;5.30;3.80;;;;;;;35.05;27.82;100818.16;4939040;28;98949;-80
2021/06/11 09:32:28;;;;;;;24.60;4.93;;;;;;;36.14;26.62;100816.41;4937019;28;98959;-79
2021/06/11 09:34:56;;;;;;;5.00;4.50;;;;;;;37.32;23.87;100821.97;4939924;28;97995;-79
2021/06/11 09:37:26;;;;;;;5.15;4.75;;;;;;;37.59;24.40;100819.63;4940375;28;99271;-80
2021/06/11 09:40:01;;;;;;;6.32;5.18;;;;;;;38.38;23.13;100817.28;4922465;28;98639;-79
2021/06/11 09:42:33;;;;;;;5.40;4.70;;;;;;;38.15;22.63;100824.00;4906074;28;98180;-79
2021/06/11 09:45:08;;;;;;;4.95;4.45;;;;;;;37.84;22.85;100820.91;4940771;28;98215;-71
2021/06/11 09:47:41;;;;;;;4.95;4.55;;;;;;;36.49;24.36;100819.66;4937857;28;99335;-79
2021/06/11 09:50:16;;;;;;;5.45;4.95;;;;;;;37.96;22.79;100811.72;4938014;28;98660;-79
2021/06/11 09:53:01;;;;;;;4.65;4.25;;;;;;;37.26;24.51;100809.72;4935272;28;98217;-79
2021/06/11 09:55:51;;;;;;;5.07;4.68;;;;;;;38.61;21.83;100809.75;4937330;28;97772;-71
2021/06/11 09:58:27;;;;;;;4.47;4.00;;;;;;;37.26;23.77;100815.31;4939645;28;99305;-79
2021/06/11 10:01:01;;;;;;;6.88;5.15;;;;;;;35.58;24.98;100803.16;4937268;28;98612;-70
2021/06/11 10:03:34;;;;;;;5.28;4.78;;;;;;;37.77;22.54;100809.91;4939150;28;98076;-79
2021/06/11 10:06:08;;;;;;;5.07;4.68;;;;;;;37.25;23.68;100810.91;4938609;28;99041;-71
2021/06/11 10:08:35;;;;;;;4.95;4.40;;;;;;;37.74;24.01;100808.75;4937849;28;98602;-79
2021/06/11 10:11:10;;;;;;;5.05;4.50;;;;;;;38.26;21.31;100801.97;4904231;28;100820;-71
2021/06/11 10:13:36;;;;;;;4.22;3.83;;;;;;;36.80;24.29;100804.03;4933512;28;99395;-78
2021/06/11 10:16:11;;;;;;;5.03;4.60;;;;;;;38.68;21.44;100804.66;4921139;28;104399;-78
2021/06/11 10:18:37;;;;;;;4.97;4.57;;;;;;;38.78;20.97;100808.34;4920658;28;115989;-78
2021/06/11 10:21:04;;;;;;;4.72;4.30;;;;;;;38.86;20.97;100806.09;4939489;28;98969;-78
2021/06/11 10:23:31;;;;;;;5.32;4.82;;;;;;;37.19;22.33;100798.66;4938168;28;112479;-71
2021/06/11 10:25:57;;;;;;;6.13;5.30;;;;;;;36.58;23.38;100806.59;4921767;28;97987;-70
2021/06/11 10:28:47;;;;;;;5.40;4.90;;;;;;;38.09;22.01;100788.47;4937676;28;111689;-79
2021/06/11 10:31:15;;;;;;;7.70;5.95;;;;;;;38.94;20.57;100799.75;4938362;28;98711;-78
2021/06/11 10:33:44;;;;;;;6.97;5.63;;;;;;;39.43;20.64;100782.34;4921125;28;97985;-78
2021/06/11 10:39:22;;;;;;;9.73;6.18;;;;;;;36.81;23.53;100779.56;4939297;28;98002;-70
2021/06/11 10:42:07;;;;;;;7.03;6.43;;;;;;;39.08;21.39;100783.63;4938203;28;99406;-78
2021/06/11 10:44:50;;;;;;;6.30;5.70;;;;;;;38.85;21.67;100782.78;4938718;28;98120;-78
2021/06/11 10:47:16;;;;;;;7.00;6.30;;;;;;;38.82;20.87;100783.69;4938004;28;97866;-71
2021/06/11 10:49:57;;;;;;;6.45;5.93;;;;;;;37.62;23.40;100775.00;4939496;28;98365;-78
2021/06/11 10:52:33;;;;;;;7.20;6.70;;;;;;;38.34;21.96;100768.00;4938885;28;99375;-78
2021/06/11 10:55:35;;;;;;;5.78;5.32;;;;;;;39.83;21.51;100776.03;4937299;28;98293;-71
2021/06/11 10:58:01;;;;;;;8.38;7.68;;;;;;;37.17;22.44;100773.03;4927973;28;97985;-71
2021/06/11 11:00:29;;;;;;;5.80;5.30;;;;;;;37.76;23.92;100761.28;4939018;28;98671;-71
2021/06/11 11:03:01;;;;;;;7.05;6.45;;;;;;;38.51;22.37;100755.34;4939303;28;98650;-71
2021/06/11 11:05:38;;;;;;;7.30;6.60;;;;;;;37.95;21.97;100761.56;4920787;28;97765;-70
2021/06/11 11:08:06;;;;;;;6.25;5.75;;;;;;;33.98;27.77;100752.66;4938909;28;98049;-78
2021/06/11 11:10:51;;;;;;;7.53;6.90;;;;;;;33.52;27.62;100754.03;4938228;28;98525;-70
2021/06/11 11:13:26;;;;;;;7.07;6.47;;;;;;;31.83;30.32;100754.56;4934734;28;99497;-78
2021/06/11 11:15:55;;;;;;;8.27;7.47;;;;;;;33.59;28.50;100746.34;4936152;28;99035;-79
2021/06/11 11:18:41;;;;;;;6.25;5.75;;;;;;;33.79;28.56;100746.50;4938226;28;97943;-71
2021/06/11 11:21:28;;;;;;;7.68;6.90;;;;;;;32.86;29.90;100741.94;4927825;28;98811;-70
2021/06/11 11:24:00;;;;;;;7.68;6.95;;;;;;;33.57;28.38;100742.41;4936054;28;99699;-71
2021/06/11 11:26:49;;;;;;;7.10;6.60;;;;;;;34.44;26.81;100746.38;4932425;28;98705;-71
2021/06/11 11:29:20;;;;;;;7.65;6.28;;;;;;;35.80;23.93;100738.25;4937489;28;104144;-78
2021/06/11 11:31:48;;;;;;;5.68;5.18;;;;;;;33.87;27.22;100742.38;4938342;28;99039;-79